Time;durP1;ratioP1;P1;durP2;ratioP2;P2;SDS_P1;SDS_P2;PMS_P1;PMS_P2;Temp;Humidity;BMP_temperature;BMP_pressure;BME280_temperature;BME280_humidity;BME280_pressure;Samples;Min_cycle;Max_cycle;Signal;HPM_P1;HPM_P2
2022/07/14 00:00:38;;;;;;;;;11.75;9.50;;;;;27.57;35.57;101635.63;6131070;23;45278;-88
2022/07/14 00:03:04;;;;;;;;;9.50;9.50;;;;;27.54;35.26;101627.00;6156827;23;45190;-88
2022/07/14 00:05:29;;;;;;;;;11.00;9.00;;;;;27.45;35.41;101614.44;6182098;23;54136;-87
2022/07/14 00:07:55;;;;;;;;;13.25;9.50;;;;;27.41;35.02;101621.88;6156216;23;45619;-88
2022/07/14 00:10:20;;;;;;;;;10.75;8.25;;;;;27.37;35.23;101617.78;6131838;23;45415;-88
2022/07/14 00:12:45;;;;;;;;;10.75;8.00;;;;;27.35;35.28;101617.91;6182687;23;52572;-89
2022/07/14 00:15:11;;;;;;;;;8.50;8.00;;;;;27.33;35.00;101605.69;6156308;23;45376;-89
2022/07/14 00:17:36;;;;;;;;;7.25;7.25;;;;;27.31;34.90;101597.78;6182547;23;52320;-88
2022/07/14 00:20:02;;;;;;;;;7.50;6.25;;;;;27.30;34.70;101593.41;6156803;23;45296;-88
2022/07/14 00:22:28;;;;;;;;;9.50;6.25;;;;;27.24;34.83;101577.88;6156256;23;45301;-88
2022/07/14 00:24:54;;;;;;;;;6.25;5.75;;;;;27.24;35.92;101576.03;6156735;23;45284;-88
2022/07/14 00:27:19;;;;;;;;;7.50;5.25;;;;;27.32;35.81;101585.25;6131230;23;46978;-88
2022/07/14 00:29:44;;;;;;;;;7.25;6.25;;;;;27.35;36.12;101572.47;6130806;23;45878;-88
2022/07/14 00:32:10;;;;;;;;;9.75;7.00;;;;;27.35;35.56;101572.47;6155917;23;45630;-87
2022/07/14 00:34:35;;;;;;;;;7.00;7.00;;;;;27.38;36.46;101576.72;6129984;23;68581;-88
2022/07/14 00:37:00;;;;;;;;;9.50;6.00;;;;;27.41;37.06;101581.78;6131094;23;52872;-88
2022/07/14 00:39:26;;;;;;;;;8.50;5.25;;;;;27.37;36.43;101572.34;6130346;23;59658;-89
2022/07/14 00:41:52;;;;;;;;;8.25;8.00;;;;;27.36;36.06;101578.69;6156110;23;45170;-88
2022/07/14 00:44:17;;;;;;;;;11.25;8.75;;;;;27.29;35.66;101590.88;6155811;23;45483;-88
2022/07/14 00:46:42;;;;;;;;;14.75;12.00;;;;;27.18;35.84;101586.44;6129685;23;69621;-88
2022/07/14 00:49:08;;;;;;;;;9.25;9.25;;;;;27.06;35.90;101585.69;6156265;23;45288;-88
2022/07/14 00:51:33;;;;;;;;;9.50;8.25;;;;;26.97;35.34;101605.16;6155428;23;63194;-88
2022/07/14 00:53:59;;;;;;;;;8.25;8.25;;;;;26.88;36.01;101604.09;6154688;23;57950;-88
2022/07/14 00:56:24;;;;;;;;;9.00;8.00;;;;;26.82;36.30;101604.63;6156183;23;46803;-89
2022/07/14 00:58:50;;;;;;;;;8.00;8.00;;;;;26.79;36.51;101611.06;6131178;23;45283;-89
2022/07/14 01:01:15;;;;;;;;;9.00;8.25;;;;;26.74;36.47;101602.59;6156484;23;45109;-88
2022/07/14 01:03:40;;;;;;;;;13.00;10.00;;;;;26.64;36.19;101599.84;6131586;23;45398;-88
2022/07/14 01:06:06;;;;;;;;;10.25;7.50;;;;;26.62;36.05;101601.81;6130258;23;64991;-89
2022/07/14 01:08:31;;;;;;;;;13.00;8.00;;;;;26.58;35.89;101604.84;6130858;23;50825;-88
2022/07/14 01:10:56;;;;;;;;;9.25;7.75;;;;;26.53;36.00;101607.88;6131460;23;45329;-88
2022/07/14 01:13:22;;;;;;;;;11.00;10.00;;;;;26.46;36.19;101612.03;6130336;23;54281;-89
2022/07/14 01:15:48;;;;;;;;;7.75;7.50;;;;;26.44;36.34;101621.97;6130951;23;47104;-88
2022/07/14 01:18:13;;;;;;;;;8.00;7.00;;;;;26.40;35.83;101613.38;6131512;23;45487;-88
2022/07/14 01:20:39;;;;;;;;;8.00;7.25;;;;;26.36;36.18;101630.63;6131646;23;45353;-89
2022/07/14 01:23:04;;;;;;;;;6.75;5.75;;;;;26.26;36.24;101629.66;6156989;23;45348;-91
2022/07/14 01:25:31;;;;;;;;;6.00;6.00;;;;;26.18;36.19;101629.47;6131438;23;47906;-90
2022/07/14 01:27:56;;;;;;;;;7.75;6.00;;;;;26.15;37.15;101629.69;6155747;23;45645;-88
2022/07/14 01:30:21;;;;;;;;;5.00;4.00;;;;;26.08;36.73;101627.53;6131675;23;45218;-89
2022/07/14 01:32:47;;;;;;;;;6.00;5.00;;;;;25.99;36.90;101625.59;6156187;23;45447;-89
2022/07/14 01:35:12;;;;;;;;;5.25;5.00;;;;;25.99;37.10;101635.44;6182023;23;55601;-89
2022/07/14 01:37:38;;;;;;;;;9.25;6.50;;;;;25.99;37.02;101640.78;6155977;23;45243;-88
2022/07/14 01:40:04;;;;;;;;;8.50;7.25;;;;;25.91;37.41;101635.16;6131472;23;45222;-88
2022/07/14 01:42:30;;;;;;;;;7.00;7.00;;;;;25.86;37.83;101620.38;6182285;23;45228;-90
2022/07/14 01:44:55;;;;;;;;;10.00;8.00;;;;;25.88;37.47;101626.44;6156032;23;46353;-88
2022/07/14 01:47:20;;;;;;;;;6.00;5.00;;;;;25.83;37.31;101620.59;6155845;23;45265;-88
2022/07/14 01:49:46;;;;;;;;;5.00;5.00;;;;;25.80;36.89;101620.03;6130431;23;54069;-87
2022/07/14 01:52:11;;;;;;;;;5.00;5.00;;;;;25.79;37.64;101621.00;6129787;23;64959;-87
2022/07/14 01:54:36;;;;;;;;;6.75;5.75;;;;;25.77;37.35;101618.44;6129796;23;63447;-87
2022/07/14 01:57:02;;;;;;;;;6.00;4.75;;;;;25.77;37.10;101622.94;6154937;23;51278;-87
2022/07/14 01:59:27;;;;;;;;;4.25;4.25;;;;;25.66;37.45;101616.63;6155446;23;45288;-87
2022/07/14 02:01:52;;;;;;;;;6.00;6.00;;;;;25.61;37.90;101617.97;6154071;23;69786;-87
2022/07/14 02:04:19;;;;;;;;;6.00;3.25;;;;;25.57;38.08;101616.50;6128964;23;68109;-87
2022/07/14 02:06:50;;;;;;;;;7.25;6.25;;;;;25.51;38.40;101620.50;6155061;23;45598;-88
2022/07/14 02:09:16;;;;;;;;;6.50;5.50;;;;;25.50;38.43;101616.13;6130736;23;45421;-88
2022/07/14 02:14:28;;;;;;;;;16.50;14.25;;;;;25.39;38.54;101606.34;6160596;23;45421;-89
2022/07/14 02:16:54;;;;;;;;;41.25;33.75;;;;;25.34;38.86;101605.84;6131026;23;45867;-88
2022/07/14 02:19:20;;;;;;;;;53.00;38.00;;;;;25.31;38.67;101603.41;6156182;23;45370;-88
2022/07/14 02:21:46;;;;;;;;;70.50;51.75;;;;;25.26;39.23;101594.94;6130876;23;45524;-88
2022/07/14 02:24:12;;;;;;;;;72.50;55.50;;;;;25.26;39.23;101598.44;6154793;23;47909;-89
2022/07/14 02:26:38;;;;;;;;;76.00;58.75;;;;;25.23;39.07;101589.81;6131009;23;46067;-89
2022/07/14 02:29:07;;;;;;;;;69.50;52.50;;;;;25.23;39.69;101585.34;6131595;23;45260;-89
2022/07/14 02:31:33;;;;;;;;;67.75;51.75;;;;;25.21;39.47;101587.25;6155784;23;45284;-88
2022/07/14 02:33:59;;;;;;;;;55.50;42.50;;;;;25.19;39.20;101588.34;6130628;23;47756;-88
2022/07/14 02:36:24;;;;;;;;;50.25;39.00;;;;;25.12;39.66;101587.97;6155529;23;45302;-89
2022/07/14 02:38:50;;;;;;;;;55.50;42.00;;;;;25.05;40.01;101579.59;6155036;23;49922;-89
2022/07/14 02:41:16;;;;;;;;;46.50;36.25;;;;;25.06;39.62;101588.44;6155668;23;45403;-89
2022/07/14 02:43:41;;;;;;;;;42.75;33.50;;;;;25.04;40.08;101583.25;6130866;23;47024;-89
2022/07/14 02:46:07;;;;;;;;;38.50;32.25;;;;;24.99;40.40;101568.56;6130276;23;45592;-89
2022/07/14 02:48:32;;;;;;;;;25.25;22.75;;;;;24.95;40.50;101581.28;6130740;23;45206;-88
2022/07/14 02:51:03;;;;;;;;;29.00;25.75;;;;;24.89;40.91;101574.59;6130252;23;45234;-88
2022/07/14 02:53:28;;;;;;;;;23.50;21.50;;;;;24.86;40.34;101584.66;6154530;23;47473;-88
2022/07/14 02:55:54;;;;;;;;;21.75;18.50;;;;;24.78;40.86;101579.91;6130281;23;45367;-87
2022/07/14 02:58:20;;;;;;;;;21.00;18.00;;;;;24.76;41.04;101571.19;6130248;23;45321;-88
2022/07/14 03:00:45;;;;;;;;;12.00;10.50;;;;;24.74;41.09;101570.47;6155263;23;45409;-88
2022/07/14 03:03:11;;;;;;;;;11.50;8.75;;;;;24.66;40.94;101579.00;6181421;23;46318;-88
2022/07/14 03:05:36;;;;;;;;;12.50;10.25;;;;;24.66;41.45;101583.47;6154133;23;60444;-88
2022/07/14 03:08:01;;;;;;;;;14.75;10.00;;;;;24.61;41.76;101580.31;6154701;23;45206;-88
2022/07/14 03:10:27;;;;;;;;;11.25;8.75;;;;;24.56;41.69;101580.66;6155117;23;50490;-89
2022/07/14 03:12:53;;;;;;;;;6.75;6.25;;;;;24.50;41.81;101576.63;6155042;23;50563;-89
2022/07/14 03:15:19;;;;;;;;;8.75;7.75;;;;;24.52;41.81;101576.53;6130645;23;45675;-88
2022/07/14 03:17:44;;;;;;;;;7.25;7.00;;;;;24.49;41.62;101571.41;6131788;23;45160;-88
2022/07/14 03:20:10;;;;;;;;;8.75;7.50;;;;;24.40;42.74;101567.63;6156471;23;45435;-88
2022/07/14 03:22:36;;;;;;;;;7.50;6.75;;;;;24.34;42.77;101570.75;6182308;23;46362;-88
2022/07/14 03:25:01;;;;;;;;;10.00;7.00;;;;;24.32;42.56;101570.00;6130955;23;60255;-88
2022/07/14 03:27:26;;;;;;;;;6.25;6.25;;;;;24.24;42.83;101565.25;6131714;23;45367;-88
2022/07/14 03:29:51;;;;;;;;;8.25;6.25;;;;;24.24;43.17;101562.59;6155969;23;57793;-88
2022/07/14 03:32:17;;;;;;;;;7.00;5.75;;;;;24.25;43.46;101566.94;6155891;23;50614;-87
2022/07/14 03:34:42;;;;;;;;;7.00;4.75;;;;;24.20;43.32;101550.50;6155874;23;51092;-87
2022/07/14 03:37:09;;;;;;;;;5.25;5.25;;;;;24.25;43.47;101564.28;6131321;23;45242;-88
2022/07/14 03:39:34;;;;;;;;;8.00;6.50;;;;;24.24;43.15;101567.09;6156445;23;45436;-87
2022/07/14 03:41:59;;;;;;;;;10.75;10.75;;;;;24.28;42.90;101571.22;6131049;23;46830;-87
2022/07/14 03:44:25;;;;;;;;;14.50;12.50;;;;;24.25;43.43;101572.25;6130639;23;55138;-87
2022/07/14 03:46:51;;;;;;;;;18.25;11.25;;;;;24.25;43.31;101571.41;6130058;23;67088;-86
2022/07/14 03:49:16;;;;;;;;;18.50;17.50;;;;;24.23;43.41;101570.69;6131576;23;45210;-88
2022/07/14 03:51:42;;;;;;;;;26.00;16.75;;;;;24.12;43.79;101572.31;6130745;23;47096;-88
2022/07/14 03:54:07;;;;;;;;;36.75;29.00;;;;;24.08;43.79;101572.66;6131434;23;45812;-87
2022/07/14 03:56:33;;;;;;;;;39.00;31.25;;;;;24.03;44.31;101577.47;6131098;23;45286;-87
2022/07/14 03:58:58;;;;;;;;;30.25;24.75;;;;;24.02;44.21;101581.09;6155600;23;47268;-87
2022/07/14 04:01:23;;;;;;;;;28.00;23.75;;;;;23.92;44.27;101563.16;6154764;23;64876;-86
2022/07/14 04:03:49;;;;;;;;;24.25;21.75;;;;;23.94;44.32;101557.69;6155809;23;45209;-86
2022/07/14 04:06:14;;;;;;;;;20.75;15.00;;;;;23.96;43.98;101566.44;6181361;23;54119;-87
2022/07/14 04:08:40;;;;;;;;;16.00;14.75;;;;;23.89;44.48;101562.53;6131711;23;45409;-88
2022/07/14 04:11:05;;;;;;;;;13.25;13.00;;;;;23.91;44.32;101569.41;6156315;23;46754;-87
2022/07/14 04:13:32;;;;;;;;;10.00;10.00;;;;;23.90;44.64;101578.38;6131261;23;45475;-87
2022/07/14 04:15:57;;;;;;;;;10.00;8.50;;;;;23.87;44.79;101575.06;6131552;23;45310;-88
2022/07/14 04:18:23;;;;;;;;;8.75;8.75;;;;;23.82;44.88;101563.91;6182664;23;45337;-85
2022/07/14 04:20:49;;;;;;;;;10.25;8.50;;;;;23.80;44.99;101574.66;6155733;23;46186;-86
2022/07/14 04:23:15;;;;;;;;;7.75;5.50;;;;;23.81;45.21;101576.38;6131754;23;45381;-89
2022/07/14 04:25:40;;;;;;;;;9.00;7.00;;;;;23.82;45.52;101577.22;6131825;23;45253;-88
2022/07/14 04:28:05;;;;;;;;;7.75;6.75;;;;;23.85;45.44;101569.03;6130434;23;53674;-87
2022/07/14 04:30:31;;;;;;;;;9.25;7.50;;;;;23.90;45.56;101577.50;6130987;23;47147;-87
2022/07/14 04:32:56;;;;;;;;;8.25;7.00;;;;;23.95;44.97;101580.69;6130785;23;54330;-88
2022/07/14 04:35:21;;;;;;;;;8.25;8.25;;;;;23.89;45.21;101587.28;6154896;23;52438;-88
2022/07/14 04:37:47;;;;;;;;;7.50;7.50;;;;;23.83;45.16;101585.06;6131695;23;45241;-89
2022/07/14 04:40:12;;;;;;;;;8.00;5.50;;;;;23.80;45.20;101587.09;6156045;23;46877;-88
2022/07/14 04:42:38;;;;;;;;;10.25;8.00;;;;;23.75;45.69;101577.63;6131362;23;45255;-87
2022/07/14 04:45:04;;;;;;;;;9.25;7.25;;;;;23.79;45.57;101588.91;6155993;23;45225;-88
2022/07/14 04:47:29;;;;;;;;;8.00;7.75;;;;;23.73;45.89;101587.50;6156227;23;45248;-87
2022/07/14 04:52:48;;;;;;;;;6.00;6.00;;;;;23.62;46.03;101587.41;6182688;23;45254;-88
2022/07/14 04:55:15;;;;;;;;;8.75;7.25;;;;;23.59;46.54;101585.00;6131440;23;45333;-87
2022/07/14 04:57:40;;;;;;;;;10.00;7.75;;;;;23.60;46.34;101584.00;6182672;23;45467;-88
2022/07/14 05:00:06;;;;;;;;;10.75;8.75;;;;;23.55;46.83;101579.03;6155716;23;47181;-88
2022/07/14 05:02:32;;;;;;;;;10.25;7.50;;;;;23.52;46.66;101581.06;6182437;23;45373;-88
2022/07/14 05:04:58;;;;;;;;;9.50;6.75;;;;;23.48;47.38;101577.75;6130425;23;58255;-88
2022/07/14 05:07:24;;;;;;;;;9.75;7.75;;;;;23.56;47.04;101591.34;6182577;23;45315;-89
2022/07/14 05:09:49;;;;;;;;;10.75;8.00;;;;;23.60;47.11;101596.47;6182546;23;45275;-89
2022/07/14 05:12:16;;;;;;;;;8.50;6.25;;;;;23.57;47.04;101584.25;6131203;23;46011;-89
2022/07/14 05:14:41;;;;;;;;;7.50;7.50;;;;;23.57;46.70;101587.75;6156862;23;45290;-89
2022/07/14 05:17:07;;;;;;;;;9.50;8.00;;;;;23.62;46.59;101584.75;6182780;23;45197;-89
2022/07/14 05:19:32;;;;;;;;;6.50;6.25;;;;;23.71;46.76;101585.91;6182092;23;45953;-89
2022/07/14 05:21:58;;;;;;;;;10.25;8.75;;;;;23.72;46.57;101588.47;6131327;23;45186;-88
2022/07/14 05:24:24;;;;;;;;;10.50;7.50;;;;;23.66;46.83;101586.25;6130574;23;59489;-88
2022/07/14 05:26:49;;;;;;;;;9.00;8.00;;;;;23.60;47.40;101584.00;6131334;23;45254;-88
2022/07/14 05:29:14;;;;;;;;;7.00;7.00;;;;;23.58;47.26;101585.94;6131553;23;46971;-88
2022/07/14 05:31:40;;;;;;;;;9.50;7.50;;;;;23.59;46.94;101590.31;6131032;23;45785;-88
2022/07/14 05:34:06;;;;;;;;;10.00;7.75;;;;;23.57;46.75;101592.22;6129784;23;64575;-88
2022/07/14 05:36:31;;;;;;;;;8.25;6.50;;;;;23.57;46.90;101598.38;6131425;23;45302;-88
2022/07/14 05:38:57;;;;;;;;;8.50;7.75;;;;;23.51;47.25;101596.16;6155101;23;46979;-88
2022/07/14 05:41:22;;;;;;;;;9.00;8.50;;;;;23.53;47.51;101604.88;6155510;23;45313;-87
2022/07/14 05:43:48;;;;;;;;;9.75;8.00;;;;;23.50;47.61;101610.38;6155760;23;45270;-88
2022/07/14 05:46:13;;;;;;;;;9.50;8.75;;;;;23.47;47.39;101612.41;6131016;23;45314;-88
2022/07/14 05:48:39;;;;;;;;;11.00;9.25;;;;;23.41;47.91;101604.88;6130215;23;51940;-88
2022/07/14 05:51:13;;;;;;;;;10.00;9.00;;;;;23.48;47.19;101614.97;6130988;23;45238;-88
2022/07/14 05:53:39;;;;;;;;;7.50;7.50;;;;;23.48;47.97;101614.97;6131533;23;45378;-88
2022/07/14 05:56:05;;;;;;;;;10.00;8.00;;;;;23.55;47.78;101615.38;6131118;23;45342;-89
2022/07/14 05:58:32;;;;;;;;;8.75;8.75;;;;;23.57;47.60;101616.13;6155923;23;47386;-88
2022/07/14 06:00:57;;;;;;;;;10.25;10.25;;;;;23.56;47.64;101609.94;6131075;23;45723;-88
2022/07/14 06:03:22;;;;;;;;;10.25;7.50;;;;;23.63;47.35;101613.03;6155393;23;45342;-88
2022/07/14 06:05:48;;;;;;;;;8.00;8.00;;;;;23.64;47.10;101605.91;6155604;23;45261;-87
2022/07/14 06:08:13;;;;;;;;;10.25;10.00;;;;;23.65;47.21;101603.16;6155420;23;45518;-89
2022/07/14 06:10:39;;;;;;;;;11.25;11.00;;;;;23.61;47.26;101603.50;6130810;23;45376;-88
2022/07/14 06:13:04;;;;;;;;;12.75;9.75;;;;;23.68;47.62;101618.88;6155078;23;61818;-89
2022/07/14 06:15:30;;;;;;;;;10.25;8.75;;;;;23.71;47.42;101607.19;6155695;23;45467;-88
2022/07/14 06:17:55;;;;;;;;;13.75;11.00;;;;;23.75;47.49;101611.31;6154619;23;61807;-88
2022/07/14 06:20:21;;;;;;;;;10.00;8.50;;;;;23.79;47.60;101612.81;6155748;23;49840;-88
2022/07/14 06:22:50;;;;;;;;;10.75;10.00;;;;;23.84;47.48;101618.66;6155293;23;45302;-87
2022/07/14 06:25:16;;;;;;;;;9.25;8.50;;;;;23.89;47.76;101611.22;6181572;23;45510;-87
2022/07/14 06:27:41;;;;;;;;;10.50;9.25;;;;;23.93;47.18;101618.00;6129872;23;62630;-89
2022/07/14 06:30:08;;;;;;;;;10.50;9.50;;;;;23.98;47.38;101615.03;6155381;23;45528;-88
2022/07/14 06:32:36;;;;;;;;;9.50;8.50;;;;;24.09;47.07;101619.56;6155133;23;45249;-89
2022/07/14 06:35:02;;;;;;;;;11.25;11.00;;;;;24.13;47.19;101619.25;6130942;23;45388;-89
2022/07/14 06:37:27;;;;;;;;;10.75;9.00;;;;;24.19;46.72;101620.59;6130269;23;46945;-88
2022/07/14 06:39:53;;;;;;;;;13.50;10.75;;;;;24.20;47.29;101614.34;6130353;23;45300;-89
2022/07/14 06:42:19;;;;;;;;;14.00;13.00;;;;;24.23;46.69;101621.22;6130196;23;48674;-87
2022/07/14 06:44:44;;;;;;;;;9.25;9.25;;;;;24.23;46.76;101618.56;6130830;23;45552;-88
2022/07/14 06:47:09;;;;;;;;;14.75;11.00;;;;;24.24;46.94;101621.13;6129305;23;64433;-88
2022/07/14 06:49:35;;;;;;;;;10.25;9.75;;;;;24.27;46.87;101620.88;6155037;23;45305;-87
2022/07/14 06:52:00;;;;;;;;;13.50;11.25;;;;;24.33;46.53;101624.91;6155215;23;62788;-87
2022/07/14 06:54:25;;;;;;;;;9.50;9.50;;;;;24.39;46.46;101628.94;6156296;23;51557;-88
2022/07/14 06:56:51;;;;;;;;;10.50;10.25;;;;;24.38;46.55;101617.44;6131454;23;46822;-88
2022/07/14 06:59:16;;;;;;;;;12.00;11.00;;;;;24.45;46.57;101613.38;6182989;23;45291;-90
2022/07/14 07:01:42;;;;;;;;;10.75;10.00;;;;;24.50;46.55;101613.88;6130892;23;61935;-88
2022/07/14 07:04:07;;;;;;;;;9.75;9.75;;;;;24.50;46.76;101615.69;6132228;23;45218;-87
2022/07/14 07:06:47;;;;;;;;;11.00;9.75;;;;;24.53;46.65;101613.69;6131521;23;47240;-92
2022/07/14 07:09:15;;;;;;;;;10.00;10.00;;;;;24.53;46.51;101618.16;6158201;23;45760;-85
2022/07/14 07:11:49;;;;;;;;;11.00;10.00;;;;;24.57;46.67;101616.09;6131924;23;45309;-89
2022/07/14 07:14:17;;;;;;;;;12.00;10.25;;;;;24.61;46.39;101617.56;6182769;23;45253;-92
2022/07/14 07:16:47;;;;;;;;;12.25;10.00;;;;;24.65;46.22;101609.25;6156217;23;46978;-85
2022/07/14 07:19:13;;;;;;;;;13.75;10.50;;;;;24.67;46.37;101607.31;6130773;23;45773;-86
2022/07/14 07:21:39;;;;;;;;;13.25;9.50;;;;;24.79;45.87;101613.53;6155894;23;45416;-86
2022/07/14 07:24:05;;;;;;;;;11.50;9.00;;;;;24.84;46.00;101610.53;6129703;23;66238;-87
2022/07/14 07:26:39;;;;;;;;;9.50;9.25;;;;;24.99;45.67;101617.34;6155469;23;47100;-86
2022/07/14 07:29:05;;;;;;;;;9.50;8.75;;;;;25.09;45.51;101612.16;6155420;23;45371;-87
2022/07/14 07:31:31;;;;;;;;;9.75;9.75;;;;;25.21;45.46;101611.22;6155924;23;45298;-85
2022/07/14 07:33:57;;;;;;;;;9.25;9.25;;;;;25.29;44.80;101608.00;6155405;23;45145;-85
2022/07/14 07:36:22;;;;;;;;;12.50;9.75;;;;;25.29;44.56;101608.00;6156126;23;45357;-88
2022/07/14 07:38:48;;;;;;;;;12.00;12.00;;;;;25.26;44.30;101601.09;6156041;23;45314;-85
2022/07/14 07:41:14;;;;;;;;;11.50;9.00;;;;;25.34;44.57;101613.84;6155858;23;45298;-85
2022/07/14 07:43:39;;;;;;;;;15.75;10.50;;;;;25.33;44.41;101619.28;6156190;23;45528;-86
2022/07/14 07:46:05;;;;;;;;;10.25;9.50;;;;;25.37;44.49;101620.72;6130959;23;63099;-83
2022/07/14 07:48:31;;;;;;;;;11.00;9.50;;;;;25.42;44.25;101621.22;6182466;23;45711;-85
2022/07/14 07:50:57;;;;;;;;;10.50;10.25;;;;;25.45;44.28;101615.66;6156568;23;45340;-83
2022/07/14 07:53:22;;;;;;;;;12.00;9.25;;;;;25.47;44.22;101611.91;6182276;23;45267;-89
2022/07/14 07:55:48;;;;;;;;;10.00;10.00;;;;;25.50;44.41;101611.66;6132829;23;60914;-88
2022/07/14 07:58:13;;;;;;;;;9.50;8.25;;;;;25.53;44.93;101613.22;6186099;23;45265;-87
2022/07/14 08:00:39;;;;;;;;;10.50;8.75;;;;;25.58;44.28;101604.88;6132733;23;45547;-91
2022/07/14 08:03:05;;;;;;;;;10.00;10.00;;;;;25.67;44.38;101618.34;6155481;23;45293;-83
2022/07/14 08:05:31;;;;;;;;;9.50;8.50;;;;;25.78;43.94;101611.28;6154365;23;46815;-84
2022/07/14 08:07:57;;;;;;;;;9.25;8.25;;;;;25.80;43.80;101604.88;6155854;23;45625;-88
2022/07/14 08:10:23;;;;;;;;;12.00;10.25;;;;;25.91;43.58;101601.34;6131823;23;45230;-88
2022/07/14 08:12:48;;;;;;;;;10.75;10.00;;;;;25.97;43.03;101608.88;6130889;23;45407;-87
2022/07/14 08:15:14;;;;;;;;;8.75;7.25;;;;;26.01;43.28;101599.66;6130686;23;47131;-91
2022/07/14 08:17:40;;;;;;;;;10.50;8.50;;;;;26.08;43.04;101597.34;6130546;23;45640;-92
2022/07/14 08:20:10;;;;;;;;;9.00;8.75;;;;;26.11;42.97;101607.75;6130820;23;45509;-85
2022/07/14 08:22:36;;;;;;;;;9.25;8.00;;;;;26.11;43.16;101601.56;6182137;23;45424;-86
2022/07/14 08:25:03;;;;;;;;;10.00;9.00;;;;;26.13;42.82;101607.63;6130411;23;47125;-91
2022/07/14 08:27:29;;;;;;;;;10.75;9.25;;;;;26.08;42.43;101611.53;6130477;23;45345;-89
2022/07/14 08:29:55;;;;;;;;;12.00;10.00;;;;;26.05;42.69;101606.44;6156082;23;45273;-87
2022/07/14 08:32:53;;;;;;;;;10.00;9.25;;;;;26.05;42.63;101605.59;6131156;23;45264;-90
2022/07/14 08:35:20;;;;;;;;;8.00;8.00;;;;;26.04;42.94;101607.41;6119060;23;46845;-85
2022/07/14 08:37:46;;;;;;;;;12.00;9.00;;;;;26.06;42.62;101599.28;6094315;23;45405;-83
2022/07/14 08:40:14;;;;;;;;;11.25;8.00;;;;;26.09;42.74;101604.38;6119844;23;45334;-81
2022/07/14 08:42:44;;;;;;;;;11.75;10.75;;;;;26.15;42.87;101590.53;6119348;23;45275;-86
2022/07/14 08:45:10;;;;;;;;;9.50;7.00;;;;;26.19;42.61;101588.47;6119342;23;46174;-85
2022/07/14 08:47:37;;;;;;;;;9.00;9.00;;;;;26.30;42.63;101595.56;6119509;23;45848;-85
2022/07/14 08:50:06;;;;;;;;;8.00;8.00;;;;;26.36;42.25;101587.91;6119806;23;45348;-86
2022/07/14 08:52:32;;;;;;;;;8.50;8.50;;;;;26.40;42.02;101585.84;6119707;23;45369;-85
2022/07/14 08:54:58;;;;;;;;;10.25;7.00;;;;;26.46;41.33;101596.00;6071415;23;48240;-89
2022/07/14 08:57:23;;;;;;;;;9.00;8.50;;;;;26.50;41.43;101589.44;6095409;23;45437;-86
2022/07/14 08:59:48;;;;;;;;;7.00;7.00;;;;;26.64;41.12;101591.84;6094694;23;67601;-89
2022/07/14 09:02:14;;;;;;;;;7.00;7.00;;;;;26.73;41.11;101592.91;6095066;23;45479;-89
2022/07/14 09:04:43;;;;;;;;;8.00;8.00;;;;;26.80;40.95;101594.06;6095364;23;45967;-88
2022/07/14 09:07:09;;;;;;;;;9.75;7.00;;;;;26.82;40.30;101593.94;6095296;23;45724;-88
2022/07/14 09:09:34;;;;;;;;;10.50;7.25;;;;;26.81;40.94;101593.09;6120014;23;45326;-88
2022/07/14 09:12:01;;;;;;;;;7.00;7.00;;;;;26.87;40.22;101583.69;6127718;23;45313;-87
2022/07/14 09:14:28;;;;;;;;;9.00;7.50;;;;;26.87;40.30;101589.03;6154759;23;47648;-82
2022/07/14 09:17:14;;;;;;;;;9.00;6.00;;;;;26.94;40.06;101578.69;6181942;23;45640;-79
2022/07/14 09:20:10;;;;;;;;;9.00;8.00;;;;;27.00;40.96;101580.84;6181738;23;45269;-83
2022/07/14 09:22:38;;;;;;;;;4.25;4.25;;;;;27.05;40.11;101570.59;6181099;23;45391;-80
2022/07/14 09:25:10;;;;;;;;;8.00;8.00;;;;;27.13;39.75;101576.13;6181036;23;46447;-89
2022/07/14 09:27:37;;;;;;;;;9.00;7.00;;;;;27.18;39.61;101581.09;6181208;23;45288;-87
2022/07/14 09:30:04;;;;;;;;;7.75;5.50;;;;;27.28;39.54;101587.34;6154879;23;45246;-85
2022/07/14 09:32:51;;;;;;;;;7.25;6.75;;;;;27.37;38.83;101577.69;6181994;23;45237;-92
2022/07/14 09:35:22;;;;;;;;;7.00;6.00;;;;;27.49;38.44;101576.63;6156865;23;46956;-91
2022/07/14 09:37:50;;;;;;;;;7.50;6.75;;;;;27.55;38.38;101575.25;6158538;23;45782;-93
2022/07/14 09:40:29;;;;;;;;;6.00;6.00;;;;;27.69;37.90;101568.66;6131642;23;45270;-92
2022/07/14 09:42:58;;;;;;;;;3.25;2.25;;;;;27.79;38.35;101570.38;6156791;23;45530;-92
2022/07/14 09:45:27;;;;;;;;;4.00;4.00;;;;;27.92;37.47;101577.34;6156560;23;48061;-93
2022/07/14 09:48:16;;;;;;;;;7.75;5.25;;;;;28.02;36.57;101572.00;6132073;23;45345;-95
2022/07/14 09:50:48;;;;;;;;;6.00;5.00;;;;;28.09;35.72;101575.84;6160018;23;45248;-96
2022/07/14 09:53:18;;;;;;;;;6.00;5.00;;;;;28.18;35.82;101575.84;6182736;23;45491;-92
2022/07/14 09:55:50;;;;;;;;;4.00;4.00;;;;;28.30;35.34;101573.88;6155644;23;48399;-92
2022/07/14 09:58:15;;;;;;;;;3.75;3.75;;;;;28.37;34.99;101579.50;6182782;23;45705;-92
2022/07/14 10:00:43;;;;;;;;;5.50;5.00;;;;;28.45;34.91;101582.31;6157057;23;45272;-93
2022/07/14 10:03:08;;;;;;;;;4.25;4.25;;;;;28.50;35.08;101576.56;6156765;23;45307;-92
2022/07/14 10:05:34;;;;;;;;;5.00;3.00;;;;;28.61;34.67;101572.94;6156264;23;46340;-92
2022/07/14 10:08:04;;;;;;;;;4.75;4.75;;;;;28.66;34.30;101576.00;6156220;23;45670;-93
2022/07/14 10:10:33;;;;;;;;;3.75;3.00;;;;;28.73;34.42;101582.47;6156070;23;45297;-92
2022/07/14 10:12:59;;;;;;;;;6.50;3.25;;;;;28.74;34.20;101579.66;6156826;23;45477;-94
2022/07/14 10:15:25;;;;;;;;;5.50;3.50;;;;;28.78;33.92;101574.88;6130867;23;57866;-94
2022/07/14 10:17:51;;;;;;;;;5.25;4.75;;;;;28.82;34.84;101575.44;6155899;23;68775;-92
2022/07/14 10:20:17;;;;;;;;;3.00;3.00;;;;;28.94;33.87;101579.66;6156983;23;45320;-93
2022/07/14 10:22:43;;;;;;;;;4.25;4.25;;;;;29.01;34.05;101586.13;6156127;23;45312;-94
2022/07/14 10:25:09;;;;;;;;;4.00;3.00;;;;;29.04;33.79;101577.78;6156034;23;46041;-93
2022/07/14 10:27:38;;;;;;;;;3.00;3.00;;;;;29.09;33.61;101575.50;6183721;23;45607;-95
2022/07/14 10:30:04;;;;;;;;;7.00;3.75;;;;;29.10;33.98;101579.03;6158171;23;45334;-93
2022/07/14 10:32:35;;;;;;;;;4.00;4.00;;;;;29.12;33.67;101567.19;6158365;23;45503;-93
2022/07/14 10:35:24;;;;;;;;;3.50;3.00;;;;;29.24;33.50;101580.44;6183453;23;45321;-93
2022/07/14 10:38:08;;;;;;;;;3.25;2.75;;;;;29.36;33.47;101579.25;6183736;23;45686;-91
2022/07/14 10:40:47;;;;;;;;;4.75;2.50;;;;;29.50;33.00;101592.19;6159442;23;45278;-94
2022/07/14 10:43:16;;;;;;;;;3.00;2.00;;;;;29.57;32.72;101583.53;6134953;23;45298;-94
2022/07/14 10:45:55;;;;;;;;;2.00;2.00;;;;;29.60;32.23;101584.09;6139092;23;46950;-95
2022/07/14 10:48:36;;;;;;;;;3.00;3.00;;;;;29.62;31.89;101568.69;6163308;22;45626;-95
2022/07/14 10:51:18;;;;;;;;;3.50;2.75;;;;;29.65;31.56;101570.25;6160813;23;45228;-94
2022/07/14 10:54:06;;;;;;;;;3.75;3.75;;;;;29.76;31.34;101577.28;6132275;23;45257;-93
2022/07/14 10:56:32;;;;;;;;;7.25;6.25;;;;;29.83;30.86;101578.34;6158392;23;46190;-92
2022/07/14 10:59:26;;;;;;;;;3.50;3.50;;;;;29.93;31.16;101579.16;6186964;23;45284;-94
2022/07/14 11:02:10;;;;;;;;;7.25;7.25;;;;;29.99;31.15;101567.78;6186031;23;45205;-93
2022/07/14 11:05:04;;;;;;;;;4.25;4.00;;;;;30.09;30.88;101568.59;6183659;23;45204;-93
2022/07/14 11:07:47;;;;;;;;;5.50;4.50;;;;;30.22;30.60;101567.34;6156978;23;48143;-94
2022/07/14 11:10:18;;;;;;;;;3.00;3.00;;;;;30.38;30.36;101570.22;6184349;23;45272;-93
2022/07/14 11:12:59;;;;;;;;;4.50;3.50;;;;;30.54;30.11;101576.75;6182553;23;45235;-94
2022/07/14 11:15:45;;;;;;;;;4.50;4.25;;;;;30.64;29.76;101572.94;6184912;22;45227;-96
2022/07/14 11:18:17;;;;;;;;;4.25;4.25;;;;;30.76;29.87;101576.25;6182143;23;47144;-96
2022/07/14 11:20:53;;;;;;;;;4.00;4.00;;;;;30.92;29.90;101575.53;6186125;23;45228;-95
2022/07/14 11:23:21;;;;;;;;;4.50;4.25;;;;;31.14;29.51;101573.31;6159103;23;45334;-91
2022/07/14 11:25:48;;;;;;;;;5.75;5.00;;;;;31.36;28.81;101571.94;6183649;23;45443;-94